sensor_id;sensor_type;location;lat;lon;timestamp;P1;durP1;ratioP1;P2;durP2;ratioP2
74900;SDS011;63461;51.416;6.758;2023-08-06T00:00:17;7.70;;;3.20;;
74900;SDS011;63461;51.416;6.758;2023-08-06T00:02:43;7.10;;;3.33;;
74900;SDS011;63461;51.416;6.758;2023-08-06T00:05:09;8.57;;;3.47;;
74900;SDS011;63461;51.416;6.758;2023-08-06T00:07:35;7.30;;;3.20;;
74900;SDS011;63461;51.416;6.758;2023-08-06T00:10:01;8.60;;;3.83;;
74900;SDS011;63461;51.416;6.758;2023-08-06T00:12:27;6.53;;;3.45;;
74900;SDS011;63461;51.416;6.758;2023-08-06T00:14:53;8.80;;;3.15;;
74900;SDS011;63461;51.416;6.758;2023-08-06T00:17:19;5.75;;;2.83;;
74900;SDS011;63461;51.416;6.758;2023-08-06T00:19:45;5.15;;;3.03;;
74900;SDS011;63461;51.416;6.758;2023-08-06T00:22:10;6.25;;;3.47;;
74900;SDS011;63461;51.416;6.758;2023-08-06T00:24:36;6.50;;;3.47;;
74900;SDS011;63461;51.416;6.758;2023-08-06T00:27:02;7.20;;;3.20;;
74900;SDS011;63461;51.416;6.758;2023-08-06T00:29:28;5.38;;;3.10;;
74900;SDS011;63461;51.416;6.758;2023-08-06T00:31:54;5.05;;;3.38;;
74900;SDS011;63461;51.416;6.758;2023-08-06T00:34:20;5.22;;;3.60;;
74900;SDS011;63461;51.416;6.758;2023-08-06T00:36:46;4.55;;;3.00;;
74900;SDS011;63461;51.416;6.758;2023-08-06T00:39:12;5.32;;;3.08;;
74900;SDS011;63461;51.416;6.758;2023-08-06T00:41:37;6.50;;;3.00;;
74900;SDS011;63461;51.416;6.758;2023-08-06T00:44:03;6.95;;;2.70;;
74900;SDS011;63461;51.416;6.758;2023-08-06T00:46:29;7.05;;;2.92;;
74900;SDS011;63461;51.416;6.758;2023-08-06T00:48:56;4.93;;;2.97;;
74900;SDS011;63461;51.416;6.758;2023-08-06T00:51:22;7.10;;;2.92;;
74900;SDS011;63461;51.416;6.758;2023-08-06T00:53:50;7.32;;;3.47;;
74900;SDS011;63461;51.416;6.758;2023-08-06T00:56:17;6.55;;;3.28;;
74900;SDS011;63461;51.416;6.758;2023-08-06T00:58:44;5.82;;;2.88;;
74900;SDS011;63461;51.416;6.758;2023-08-06T01:01:11;7.07;;;3.10;;
74900;SDS011;63461;51.416;6.758;2023-08-06T01:03:37;6.32;;;3.08;;
74900;SDS011;63461;51.416;6.758;2023-08-06T01:06:03;5.57;;;3.22;;
74900;SDS011;63461;51.416;6.758;2023-08-06T01:09:05;7.65;;;2.85;;
74900;SDS011;63461;51.416;6.758;2023-08-06T01:11:26;7.20;;;3.17;;
74900;SDS011;63461;51.416;6.758;2023-08-06T01:14:30;7.95;;;2.90;;
74900;SDS011;63461;51.416;6.758;2023-08-06T01:17:07;4.95;;;2.80;;
74900;SDS011;63461;51.416;6.758;2023-08-06T01:19:34;4.20;;;2.80;;
74900;SDS011;63461;51.416;6.758;2023-08-06T01:22:00;8.30;;;2.85;;
74900;SDS011;63461;51.416;6.758;2023-08-06T01:24:26;6.63;;;3.10;;
74900;SDS011;63461;51.416;6.758;2023-08-06T01:26:58;5.45;;;2.92;;
74900;SDS011;63461;51.416;6.758;2023-08-06T01:29:41;5.10;;;2.63;;
74900;SDS011;63461;51.416;6.758;2023-08-06T01:32:12;5.03;;;2.55;;
74900;SDS011;63461;51.416;6.758;2023-08-06T01:34:41;9.27;;;2.88;;
74900;SDS011;63461;51.416;6.758;2023-08-06T01:37:10;10.68;;;2.78;;
74900;SDS011;63461;51.416;6.758;2023-08-06T01:39:37;7.28;;;2.40;;
74900;SDS011;63461;51.416;6.758;2023-08-06T01:42:07;3.95;;;2.42;;
74900;SDS011;63461;51.416;6.758;2023-08-06T01:44:33;5.95;;;2.80;;
74900;SDS011;63461;51.416;6.758;2023-08-06T01:46:59;5.13;;;2.80;;
74900;SDS011;63461;51.416;6.758;2023-08-06T01:49:25;5.28;;;2.50;;
74900;SDS011;63461;51.416;6.758;2023-08-06T01:51:51;6.78;;;2.70;;
74900;SDS011;63461;51.416;6.758;2023-08-06T01:54:17;7.80;;;2.95;;
74900;SDS011;63461;51.416;6.758;2023-08-06T01:56:43;6.03;;;2.97;;
74900;SDS011;63461;51.416;6.758;2023-08-06T01:59:10;4.85;;;2.97;;
74900;SDS011;63461;51.416;6.758;2023-08-06T02:01:35;7.65;;;3.10;;
74900;SDS011;63461;51.416;6.758;2023-08-06T02:04:01;6.13;;;2.55;;
74900;SDS011;63461;51.416;6.758;2023-08-06T02:06:28;3.83;;;2.70;;
74900;SDS011;63461;51.416;6.758;2023-08-06T02:08:54;5.28;;;2.70;;
74900;SDS011;63461;51.416;6.758;2023-08-06T02:11:20;5.05;;;2.88;;
74900;SDS011;63461;51.416;6.758;2023-08-06T02:13:45;4.03;;;2.47;;
74900;SDS011;63461;51.416;6.758;2023-08-06T02:16:16;5.28;;;2.40;;
74900;SDS011;63461;51.416;6.758;2023-08-06T02:18:41;5.75;;;2.90;;
74900;SDS011;63461;51.416;6.758;2023-08-06T02:21:09;7.75;;;3.00;;
74900;SDS011;63461;51.416;6.758;2023-08-06T02:23:35;5.38;;;2.70;;
74900;SDS011;63461;51.416;6.758;2023-08-06T02:26:01;7.25;;;2.88;;
74900;SDS011;63461;51.416;6.758;2023-08-06T02:28:28;4.55;;;2.55;;
74900;SDS011;63461;51.416;6.758;2023-08-06T02:30:55;6.90;;;2.90;;
74900;SDS011;63461;51.416;6.758;2023-08-06T02:33:20;8.57;;;2.90;;
74900;SDS011;63461;51.416;6.758;2023-08-06T02:35:47;6.18;;;2.78;;
74900;SDS011;63461;51.416;6.758;2023-08-06T02:38:13;6.28;;;2.83;;
74900;SDS011;63461;51.416;6.758;2023-08-06T02:40:46;5.18;;;2.80;;
74900;SDS011;63461;51.416;6.758;2023-08-06T02:43:12;5.03;;;3.00;;
74900;SDS011;63461;51.416;6.758;2023-08-06T02:45:38;7.03;;;2.70;;
74900;SDS011;63461;51.416;6.758;2023-08-06T02:48:04;5.97;;;2.58;;
74900;SDS011;63461;51.416;6.758;2023-08-06T02:50:31;4.40;;;2.88;;
74900;SDS011;63461;51.416;6.758;2023-08-06T02:53:02;8.93;;;3.13;;
74900;SDS011;63461;51.416;6.758;2023-08-06T02:55:28;6.47;;;3.33;;
74900;SDS011;63461;51.416;6.758;2023-08-06T02:57:54;3.97;;;2.60;;
74900;SDS011;63461;51.416;6.758;2023-08-06T03:00:20;5.15;;;2.65;;
74900;SDS011;63461;51.416;6.758;2023-08-06T03:02:46;6.38;;;2.83;;
74900;SDS011;63461;51.416;6.758;2023-08-06T03:05:32;6.13;;;2.60;;
74900;SDS011;63461;51.416;6.758;2023-08-06T03:07:58;6.28;;;2.80;;
74900;SDS011;63461;51.416;6.758;2023-08-06T03:10:26;4.43;;;2.50;;
74900;SDS011;63461;51.416;6.758;2023-08-06T03:12:55;6.85;;;3.00;;
74900;SDS011;63461;51.416;6.758;2023-08-06T03:15:21;7.38;;;2.65;;
74900;SDS011;63461;51.416;6.758;2023-08-06T03:17:47;4.43;;;2.95;;
74900;SDS011;63461;51.416;6.758;2023-08-06T03:20:16;7.57;;;2.95;;
74900;SDS011;63461;51.416;6.758;2023-08-06T03:22:42;6.07;;;3.17;;
74900;SDS011;63461;51.416;6.758;2023-08-06T03:25:07;3.80;;;2.47;;
74900;SDS011;63461;51.416;6.758;2023-08-06T03:27:35;4.75;;;2.53;;
74900;SDS011;63461;51.416;6.758;2023-08-06T03:30:01;7.88;;;2.60;;
74900;SDS011;63461;51.416;6.758;2023-08-06T03:32:29;7.47;;;2.90;;
74900;SDS011;63461;51.416;6.758;2023-08-06T03:34:55;5.90;;;2.70;;
74900;SDS011;63461;51.416;6.758;2023-08-06T03:37:23;6.05;;;2.90;;
74900;SDS011;63461;51.416;6.758;2023-08-06T03:39:50;6.32;;;2.92;;
74900;SDS011;63461;51.416;6.758;2023-08-06T03:42:16;6.82;;;2.75;;
74900;SDS011;63461;51.416;6.758;2023-08-06T03:44:46;6.63;;;3.13;;
74900;SDS011;63461;51.416;6.758;2023-08-06T03:47:13;4.88;;;2.70;;
74900;SDS011;63461;51.416;6.758;2023-08-06T03:49:39;6.40;;;2.83;;
74900;SDS011;63461;51.416;6.758;2023-08-06T03:52:06;5.20;;;2.72;;
74900;SDS011;63461;51.416;6.758;2023-08-06T03:54:32;8.88;;;2.80;;
74900;SDS011;63461;51.416;6.758;2023-08-06T03:56:58;6.25;;;2.67;;
74900;SDS011;63461;51.416;6.758;2023-08-06T03:59:23;4.13;;;2.35;;
74900;SDS011;63461;51.416;6.758;2023-08-06T04:01:49;5.43;;;2.90;;
74900;SDS011;63461;51.416;6.758;2023-08-06T04:04:15;6.72;;;3.13;;
74900;SDS011;63461;51.416;6.758;2023-08-06T04:06:41;5.25;;;2.90;;
74900;SDS011;63461;51.416;6.758;2023-08-06T04:09:06;7.75;;;2.80;;
74900;SDS011;63461;51.416;6.758;2023-08-06T04:11:32;6.82;;;2.80;;
74900;SDS011;63461;51.416;6.758;2023-08-06T04:13:58;6.07;;;2.88;;
74900;SDS011;63461;51.416;6.758;2023-08-06T04:16:24;4.50;;;2.50;;
74900;SDS011;63461;51.416;6.758;2023-08-06T04:18:51;5.53;;;2.80;;
74900;SDS011;63461;51.416;6.758;2023-08-06T04:21:18;4.65;;;2.60;;
74900;SDS011;63461;51.416;6.758;2023-08-06T04:23:45;5.35;;;3.00;;
74900;SDS011;63461;51.416;6.758;2023-08-06T04:26:12;6.10;;;2.40;;
74900;SDS011;63461;51.416;6.758;2023-08-06T04:28:38;7.25;;;2.63;;
74900;SDS011;63461;51.416;6.758;2023-08-06T04:31:03;5.40;;;2.60;;
74900;SDS011;63461;51.416;6.758;2023-08-06T04:33:32;3.65;;;2.50;;
74900;SDS011;63461;51.416;6.758;2023-08-06T04:36:01;7.28;;;2.80;;
74900;SDS011;63461;51.416;6.758;2023-08-06T04:38:27;9.32;;;2.60;;
74900;SDS011;63461;51.416;6.758;2023-08-06T04:40:54;5.95;;;3.03;;
74900;SDS011;63461;51.416;6.758;2023-08-06T04:43:21;7.88;;;2.50;;
74900;SDS011;63461;51.416;6.758;2023-08-06T04:45:51;6.63;;;2.95;;
74900;SDS011;63461;51.416;6.758;2023-08-06T04:48:19;6.18;;;2.78;;
74900;SDS011;63461;51.416;6.758;2023-08-06T04:50:45;3.42;;;2.20;;
74900;SDS011;63461;51.416;6.758;2023-08-06T04:53:11;5.15;;;2.20;;
74900;SDS011;63461;51.416;6.758;2023-08-06T04:55:37;3.92;;;2.40;;
74900;SDS011;63461;51.416;6.758;2023-08-06T04:58:03;4.93;;;2.25;;
74900;SDS011;63461;51.416;6.758;2023-08-06T05:00:29;3.38;;;2.28;;
74900;SDS011;63461;51.416;6.758;2023-08-06T05:02:55;4.63;;;2.45;;
74900;SDS011;63461;51.416;6.758;2023-08-06T05:05:21;5.60;;;2.40;;
74900;SDS011;63461;51.416;6.758;2023-08-06T05:07:48;6.05;;;2.70;;
74900;SDS011;63461;51.416;6.758;2023-08-06T05:10:15;4.82;;;2.53;;
74900;SDS011;63461;51.416;6.758;2023-08-06T05:12:41;5.60;;;2.40;;
74900;SDS011;63461;51.416;6.758;2023-08-06T05:15:07;7.05;;;2.67;;
74900;SDS011;63461;51.416;6.758;2023-08-06T05:17:33;5.95;;;2.90;;
74900;SDS011;63461;51.416;6.758;2023-08-06T05:19:59;4.35;;;2.65;;
74900;SDS011;63461;51.416;6.758;2023-08-06T05:22:25;5.75;;;2.88;;
74900;SDS011;63461;51.416;6.758;2023-08-06T05:24:51;4.70;;;2.50;;
74900;SDS011;63461;51.416;6.758;2023-08-06T05:27:17;5.45;;;2.33;;
74900;SDS011;63461;51.416;6.758;2023-08-06T05:29:44;7.35;;;3.17;;
74900;SDS011;63461;51.416;6.758;2023-08-06T05:32:11;5.47;;;2.60;;
74900;SDS011;63461;51.416;6.758;2023-08-06T05:34:36;3.75;;;2.28;;
74900;SDS011;63461;51.416;6.758;2023-08-06T05:37:03;4.05;;;2.58;;
74900;SDS011;63461;51.416;6.758;2023-08-06T05:39:29;5.88;;;2.53;;
74900;SDS011;63461;51.416;6.758;2023-08-06T05:41:55;6.60;;;2.38;;
74900;SDS011;63461;51.416;6.758;2023-08-06T05:44:21;4.72;;;2.55;;
74900;SDS011;63461;51.416;6.758;2023-08-06T05:46:48;6.10;;;2.50;;
74900;SDS011;63461;51.416;6.758;2023-08-06T05:49:14;3.45;;;2.53;;
74900;SDS011;63461;51.416;6.758;2023-08-06T05:51:41;7.38;;;2.42;;
74900;SDS011;63461;51.416;6.758;2023-08-06T05:54:07;5.35;;;2.50;;
74900;SDS011;63461;51.416;6.758;2023-08-06T05:56:32;3.97;;;1.90;;
74900;SDS011;63461;51.416;6.758;2023-08-06T05:58:58;3.70;;;2.30;;
74900;SDS011;63461;51.416;6.758;2023-08-06T06:01:24;2.90;;;2.00;;
74900;SDS011;63461;51.416;6.758;2023-08-06T06:03:49;4.32;;;2.17;;
74900;SDS011;63461;51.416;6.758;2023-08-06T06:06:15;8.45;;;2.85;;
74900;SDS011;63461;51.416;6.758;2023-08-06T06:08:42;4.45;;;2.20;;
74900;SDS011;63461;51.416;6.758;2023-08-06T06:11:08;4.35;;;2.10;;
74900;SDS011;63461;51.416;6.758;2023-08-06T06:13:34;12.70;;;2.67;;
74900;SDS011;63461;51.416;6.758;2023-08-06T06:15:59;10.80;;;2.40;;
74900;SDS011;63461;51.416;6.758;2023-08-06T06:18:25;5.55;;;2.30;;
74900;SDS011;63461;51.416;6.758;2023-08-06T06:20:51;5.38;;;2.45;;
74900;SDS011;63461;51.416;6.758;2023-08-06T06:23:17;4.07;;;2.30;;
74900;SDS011;63461;51.416;6.758;2023-08-06T06:25:43;6.35;;;2.70;;
74900;SDS011;63461;51.416;6.758;2023-08-06T06:28:11;6.55;;;2.38;;
74900;SDS011;63461;51.416;6.758;2023-08-06T06:30:37;6.13;;;2.35;;
74900;SDS011;63461;51.416;6.758;2023-08-06T06:33:03;5.57;;;2.42;;
74900;SDS011;63461;51.416;6.758;2023-08-06T06:35:29;5.90;;;2.53;;
74900;SDS011;63461;51.416;6.758;2023-08-06T06:37:55;6.97;;;2.67;;
74900;SDS011;63461;51.416;6.758;2023-08-06T06:40:21;4.72;;;2.38;;
74900;SDS011;63461;51.416;6.758;2023-08-06T06:42:46;6.18;;;2.65;;
74900;SDS011;63461;51.416;6.758;2023-08-06T06:45:13;6.00;;;2.88;;
74900;SDS011;63461;51.416;6.758;2023-08-06T06:47:39;4.93;;;2.78;;
74900;SDS011;63461;51.416;6.758;2023-08-06T06:50:04;7.05;;;3.00;;
74900;SDS011;63461;51.416;6.758;2023-08-06T06:52:31;5.47;;;2.85;;
74900;SDS011;63461;51.416;6.758;2023-08-06T06:54:56;5.75;;;3.60;;
74900;SDS011;63461;51.416;6.758;2023-08-06T06:57:22;5.30;;;3.17;;
74900;SDS011;63461;51.416;6.758;2023-08-06T06:59:48;5.45;;;2.97;;
74900;SDS011;63461;51.416;6.758;2023-08-06T07:02:13;7.50;;;3.50;;
74900;SDS011;63461;51.416;6.758;2023-08-06T07:04:39;7.20;;;3.10;;
74900;SDS011;63461;51.416;6.758;2023-08-06T07:07:05;6.15;;;2.92;;
74900;SDS011;63461;51.416;6.758;2023-08-06T07:09:31;3.20;;;2.58;;
74900;SDS011;63461;51.416;6.758;2023-08-06T07:11:56;5.93;;;2.85;;
74900;SDS011;63461;51.416;6.758;2023-08-06T07:14:24;8.65;;;3.03;;
74900;SDS011;63461;51.416;6.758;2023-08-06T07:16:50;5.43;;;3.00;;
74900;SDS011;63461;51.416;6.758;2023-08-06T07:19:16;6.45;;;2.90;;
74900;SDS011;63461;51.416;6.758;2023-08-06T07:21:42;4.95;;;2.78;;
74900;SDS011;63461;51.416;6.758;2023-08-06T07:24:08;5.10;;;2.92;;
74900;SDS011;63461;51.416;6.758;2023-08-06T07:26:34;6.97;;;2.67;;
74900;SDS011;63461;51.416;6.758;2023-08-06T07:29:00;4.32;;;2.75;;
74900;SDS011;63461;51.416;6.758;2023-08-06T07:31:26;3.13;;;2.60;;
74900;SDS011;63461;51.416;6.758;2023-08-06T07:33:52;5.80;;;2.90;;
74900;SDS011;63461;51.416;6.758;2023-08-06T07:36:18;7.70;;;2.72;;
74900;SDS011;63461;51.416;6.758;2023-08-06T07:38:43;5.32;;;2.72;;
74900;SDS011;63461;51.416;6.758;2023-08-06T07:41:09;4.90;;;2.67;;
74900;SDS011;63461;51.416;6.758;2023-08-06T07:43:35;4.38;;;2.60;;
74900;SDS011;63461;51.416;6.758;2023-08-06T07:46:01;4.30;;;2.60;;
74900;SDS011;63461;51.416;6.758;2023-08-06T07:48:27;3.38;;;2.50;;
74900;SDS011;63461;51.416;6.758;2023-08-06T07:50:53;3.95;;;2.47;;
74900;SDS011;63461;51.416;6.758;2023-08-06T07:53:20;7.68;;;3.50;;
74900;SDS011;63461;51.416;6.758;2023-08-06T07:55:50;7.82;;;3.85;;
74900;SDS011;63461;51.416;6.758;2023-08-06T07:58:17;13.10;;;4.88;;
74900;SDS011;63461;51.416;6.758;2023-08-06T08:00:44;7.30;;;3.90;;
74900;SDS011;63461;51.416;6.758;2023-08-06T08:03:11;6.97;;;4.13;;
74900;SDS011;63461;51.416;6.758;2023-08-06T08:05:38;6.55;;;3.60;;
74900;SDS011;63461;51.416;6.758;2023-08-06T08:08:04;7.45;;;4.10;;
74900;SDS011;63461;51.416;6.758;2023-08-06T08:10:31;7.15;;;3.13;;
74900;SDS011;63461;51.416;6.758;2023-08-06T08:12:57;4.38;;;3.30;;
74900;SDS011;63461;51.416;6.758;2023-08-06T08:15:24;4.63;;;3.20;;
74900;SDS011;63461;51.416;6.758;2023-08-06T08:17:53;5.43;;;3.25;;
74900;SDS011;63461;51.416;6.758;2023-08-06T08:20:20;4.25;;;2.90;;
74900;SDS011;63461;51.416;6.758;2023-08-06T08:22:46;6.68;;;3.40;;
74900;SDS011;63461;51.416;6.758;2023-08-06T08:25:12;5.85;;;2.97;;
74900;SDS011;63461;51.416;6.758;2023-08-06T08:27:39;6.22;;;3.50;;
74900;SDS011;63461;51.416;6.758;2023-08-06T08:30:05;5.20;;;3.10;;
74900;SDS011;63461;51.416;6.758;2023-08-06T08:32:31;6.10;;;3.00;;
74900;SDS011;63461;51.416;6.758;2023-08-06T08:34:57;5.30;;;2.80;;
74900;SDS011;63461;51.416;6.758;2023-08-06T08:37:23;5.30;;;3.05;;
74900;SDS011;63461;51.416;6.758;2023-08-06T08:39:49;9.40;;;3.30;;
74900;SDS011;63461;51.416;6.758;2023-08-06T08:42:15;6.25;;;2.95;;
74900;SDS011;63461;51.416;6.758;2023-08-06T08:44:42;12.13;;;3.67;;
74900;SDS011;63461;51.416;6.758;2023-08-06T08:47:08;8.70;;;4.28;;
74900;SDS011;63461;51.416;6.758;2023-08-06T08:49:36;6.60;;;3.40;;
74900;SDS011;63461;51.416;6.758;2023-08-06T08:52:02;4.78;;;3.00;;
74900;SDS011;63461;51.416;6.758;2023-08-06T08:54:35;5.53;;;2.90;;
74900;SDS011;63461;51.416;6.758;2023-08-06T08:57:04;7.30;;;3.50;;
74900;SDS011;63461;51.416;6.758;2023-08-06T08:59:30;5.90;;;3.20;;
74900;SDS011;63461;51.416;6.758;2023-08-06T09:01:55;5.75;;;2.72;;
74900;SDS011;63461;51.416;6.758;2023-08-06T09:04:23;4.90;;;2.45;;
74900;SDS011;63461;51.416;6.758;2023-08-06T09:06:51;4.90;;;2.63;;
74900;SDS011;63461;51.416;6.758;2023-08-06T09:09:22;5.13;;;2.70;;
74900;SDS011;63461;51.416;6.758;2023-08-06T09:11:51;5.40;;;2.15;;
74900;SDS011;63461;51.416;6.758;2023-08-06T09:14:19;4.00;;;2.15;;
74900;SDS011;63461;51.416;6.758;2023-08-06T09:16:46;4.53;;;1.80;;
74900;SDS011;63461;51.416;6.758;2023-08-06T09:19:13;3.35;;;1.50;;
74900;SDS011;63461;51.416;6.758;2023-08-06T09:21:41;4.95;;;1.70;;
74900;SDS011;63461;51.416;6.758;2023-08-06T09:24:11;6.05;;;1.83;;
74900;SDS011;63461;51.416;6.758;2023-08-06T09:26:39;11.68;;;5.28;;
74900;SDS011;63461;51.416;6.758;2023-08-06T09:29:06;10.02;;;4.10;;
74900;SDS011;63461;51.416;6.758;2023-08-06T09:31:46;5.70;;;2.38;;
74900;SDS011;63461;51.416;6.758;2023-08-06T09:34:16;6.70;;;3.50;;
74900;SDS011;63461;51.416;6.758;2023-08-06T09:36:46;4.07;;;2.40;;
74900;SDS011;63461;51.416;6.758;2023-08-06T09:39:12;5.45;;;2.40;;
74900;SDS011;63461;51.416;6.758;2023-08-06T09:41:40;4.47;;;2.30;;
74900;SDS011;63461;51.416;6.758;2023-08-06T09:47:05;5.15;;;1.90;;
74900;SDS011;63461;51.416;6.758;2023-08-06T09:51:57;7.13;;;2.00;;
74900;SDS011;63461;51.416;6.758;2023-08-06T09:54:25;3.83;;;1.67;;
74900;SDS011;63461;51.416;6.758;2023-08-06T09:56:52;6.13;;;2.30;;
74900;SDS011;63461;51.416;6.758;2023-08-06T09:59:19;5.13;;;2.95;;
74900;SDS011;63461;51.416;6.758;2023-08-06T10:01:45;6.30;;;2.58;;
74900;SDS011;63461;51.416;6.758;2023-08-06T10:04:11;4.75;;;2.83;;
74900;SDS011;63461;51.416;6.758;2023-08-06T10:06:41;5.65;;;2.95;;
74900;SDS011;63461;51.416;6.758;2023-08-06T10:09:08;6.28;;;3.72;;
74900;SDS011;63461;51.416;6.758;2023-08-06T10:11:36;5.78;;;4.03;;
74900;SDS011;63461;51.416;6.758;2023-08-06T10:14:10;7.43;;;4.63;;
74900;SDS011;63461;51.416;6.758;2023-08-06T10:16:39;9.27;;;4.70;;
74900;SDS011;63461;51.416;6.758;2023-08-06T10:19:07;7.22;;;4.55;;
74900;SDS011;63461;51.416;6.758;2023-08-06T10:21:38;7.85;;;4.20;;
74900;SDS011;63461;51.416;6.758;2023-08-06T10:24:06;7.22;;;4.95;;
74900;SDS011;63461;51.416;6.758;2023-08-06T10:26:35;11.00;;;4.38;;
74900;SDS011;63461;51.416;6.758;2023-08-06T10:29:01;13.50;;;5.13;;
74900;SDS011;63461;51.416;6.758;2023-08-06T10:31:53;9.00;;;5.03;;
74900;SDS011;63461;51.416;6.758;2023-08-06T10:34:20;5.43;;;4.10;;
74900;SDS011;63461;51.416;6.758;2023-08-06T10:36:46;6.50;;;4.45;;
74900;SDS011;63461;51.416;6.758;2023-08-06T10:39:15;6.47;;;4.28;;
74900;SDS011;63461;51.416;6.758;2023-08-06T10:41:44;6.82;;;3.17;;
74900;SDS011;63461;51.416;6.758;2023-08-06T10:44:10;5.93;;;2.42;;
74900;SDS011;63461;51.416;6.758;2023-08-06T10:46:36;4.13;;;1.88;;
74900;SDS011;63461;51.416;6.758;2023-08-06T10:49:03;2.72;;;1.45;;
74900;SDS011;63461;51.416;6.758;2023-08-06T10:51:29;2.17;;;1.45;;
74900;SDS011;63461;51.416;6.758;2023-08-06T10:53:56;2.33;;;1.38;;
74900;SDS011;63461;51.416;6.758;2023-08-06T10:56:23;1.27;;;0.73;;
74900;SDS011;63461;51.416;6.758;2023-08-06T10:58:53;0.95;;;0.73;;
74900;SDS011;63461;51.416;6.758;2023-08-06T11:01:21;1.73;;;0.80;;
74900;SDS011;63461;51.416;6.758;2023-08-06T11:03:48;0.90;;;0.80;;
74900;SDS011;63461;51.416;6.758;2023-08-06T11:06:18;2.45;;;0.80;;
74900;SDS011;63461;51.416;6.758;2023-08-06T11:08:49;1.33;;;0.90;;
74900;SDS011;63461;51.416;6.758;2023-08-06T11:11:17;1.92;;;1.00;;
74900;SDS011;63461;51.416;6.758;2023-08-06T11:13:44;1.33;;;0.90;;
74900;SDS011;63461;51.416;6.758;2023-08-06T11:16:21;1.08;;;0.85;;
74900;SDS011;63461;51.416;6.758;2023-08-06T11:18:50;2.33;;;0.85;;
74900;SDS011;63461;51.416;6.758;2023-08-06T11:21:19;1.58;;;1.02;;
74900;SDS011;63461;51.416;6.758;2023-08-06T11:23:45;1.35;;;0.95;;
74900;SDS011;63461;51.416;6.758;2023-08-06T11:26:11;1.67;;;1.00;;
74900;SDS011;63461;51.416;6.758;2023-08-06T11:28:37;1.02;;;0.90;;
74900;SDS011;63461;51.416;6.758;2023-08-06T11:31:02;1.40;;;1.00;;
74900;SDS011;63461;51.416;6.758;2023-08-06T11:33:29;1.55;;;0.80;;
74900;SDS011;63461;51.416;6.758;2023-08-06T11:35:56;1.75;;;1.10;;
74900;SDS011;63461;51.416;6.758;2023-08-06T11:38:29;2.78;;;0.90;;
74900;SDS011;63461;51.416;6.758;2023-08-06T11:40:55;1.35;;;0.80;;
74900;SDS011;63461;51.416;6.758;2023-08-06T11:43:21;1.40;;;1.00;;
74900;SDS011;63461;51.416;6.758;2023-08-06T11:45:51;2.47;;;1.00;;
74900;SDS011;63461;51.416;6.758;2023-08-06T11:48:19;2.05;;;0.80;;
74900;SDS011;63461;51.416;6.758;2023-08-06T11:50:45;1.50;;;1.00;;
74900;SDS011;63461;51.416;6.758;2023-08-06T11:53:14;1.17;;;0.70;;
74900;SDS011;63461;51.416;6.758;2023-08-06T11:55:40;0.82;;;0.77;;
74900;SDS011;63461;51.416;6.758;2023-08-06T11:58:08;1.90;;;0.90;;
74900;SDS011;63461;51.416;6.758;2023-08-06T12:00:34;1.63;;;1.05;;
74900;SDS011;63461;51.416;6.758;2023-08-06T12:03:02;1.13;;;0.90;;
74900;SDS011;63461;51.416;6.758;2023-08-06T12:05:30;1.13;;;0.85;;
74900;SDS011;63461;51.416;6.758;2023-08-06T12:07:59;0.90;;;0.70;;
74900;SDS011;63461;51.416;6.758;2023-08-06T12:10:27;2.38;;;0.57;;
74900;SDS011;63461;51.416;6.758;2023-08-06T12:12:54;1.65;;;0.80;;
74900;SDS011;63461;51.416;6.758;2023-08-06T12:15:22;1.42;;;0.90;;
74900;SDS011;63461;51.416;6.758;2023-08-06T12:17:49;1.50;;;0.90;;
74900;SDS011;63461;51.416;6.758;2023-08-06T12:20:15;1.17;;;0.90;;
74900;SDS011;63461;51.416;6.758;2023-08-06T12:22:41;1.30;;;0.90;;
74900;SDS011;63461;51.416;6.758;2023-08-06T12:25:08;3.67;;;1.02;;
74900;SDS011;63461;51.416;6.758;2023-08-06T12:27:37;2.67;;;1.00;;
74900;SDS011;63461;51.416;6.758;2023-08-06T12:30:04;4.55;;;1.20;;
74900;SDS011;63461;51.416;6.758;2023-08-06T12:32:31;1.75;;;1.23;;
74900;SDS011;63461;51.416;6.758;2023-08-06T12:34:57;1.60;;;1.10;;
74900;SDS011;63461;51.416;6.758;2023-08-06T12:37:24;1.77;;;1.10;;
74900;SDS011;63461;51.416;6.758;2023-08-06T12:39:50;1.88;;;1.10;;
74900;SDS011;63461;51.416;6.758;2023-08-06T12:42:16;2.60;;;1.35;;
74900;SDS011;63461;51.416;6.758;2023-08-06T12:44:42;2.00;;;1.48;;
74900;SDS011;63461;51.416;6.758;2023-08-06T12:47:08;1.98;;;1.30;;
74900;SDS011;63461;51.416;6.758;2023-08-06T12:49:34;2.28;;;1.40;;
74900;SDS011;63461;51.416;6.758;2023-08-06T12:52:00;3.28;;;1.50;;
74900;SDS011;63461;51.416;6.758;2023-08-06T12:54:26;3.03;;;1.77;;
74900;SDS011;63461;51.416;6.758;2023-08-06T12:56:52;2.78;;;1.60;;
74900;SDS011;63461;51.416;6.758;2023-08-06T12:59:18;3.83;;;1.77;;
74900;SDS011;63461;51.416;6.758;2023-08-06T13:01:45;2.35;;;1.65;;
74900;SDS011;63461;51.416;6.758;2023-08-06T13:04:11;2.97;;;1.77;;
74900;SDS011;63461;51.416;6.758;2023-08-06T13:06:37;2.72;;;2.13;;
74900;SDS011;63461;51.416;6.758;2023-08-06T13:09:05;3.50;;;2.22;;
74900;SDS011;63461;51.416;6.758;2023-08-06T13:11:32;4.93;;;2.30;;
74900;SDS011;63461;51.416;6.758;2023-08-06T13:14:03;3.05;;;2.08;;
74900;SDS011;63461;51.416;6.758;2023-08-06T13:16:33;3.80;;;2.40;;
74900;SDS011;63461;51.416;6.758;2023-08-06T13:19:00;4.70;;;1.88;;
74900;SDS011;63461;51.416;6.758;2023-08-06T13:21:32;4.50;;;2.25;;
74900;SDS011;63461;51.416;6.758;2023-08-06T13:24:01;3.95;;;2.22;;
74900;SDS011;63461;51.416;6.758;2023-08-06T13:26:28;3.38;;;2.00;;
74900;SDS011;63461;51.416;6.758;2023-08-06T13:28:56;4.20;;;2.17;;
74900;SDS011;63461;51.416;6.758;2023-08-06T13:31:22;3.45;;;1.90;;
74900;SDS011;63461;51.416;6.758;2023-08-06T13:33:48;5.22;;;2.13;;
74900;SDS011;63461;51.416;6.758;2023-08-06T13:36:15;3.42;;;1.80;;
74900;SDS011;63461;51.416;6.758;2023-08-06T13:38:41;3.50;;;1.90;;
74900;SDS011;63461;51.416;6.758;2023-08-06T13:41:07;3.20;;;1.52;;
74900;SDS011;63461;51.416;6.758;2023-08-06T13:43:33;4.50;;;2.10;;
74900;SDS011;63461;51.416;6.758;2023-08-06T13:45:59;3.15;;;1.58;;
74900;SDS011;63461;51.416;6.758;2023-08-06T13:48:25;2.80;;;1.90;;
74900;SDS011;63461;51.416;6.758;2023-08-06T13:50:50;3.95;;;1.90;;
74900;SDS011;63461;51.416;6.758;2023-08-06T13:53:16;3.40;;;1.55;;
74900;SDS011;63461;51.416;6.758;2023-08-06T13:55:42;2.22;;;1.60;;
74900;SDS011;63461;51.416;6.758;2023-08-06T13:58:08;2.03;;;1.60;;
74900;SDS011;63461;51.416;6.758;2023-08-06T14:00:35;2.55;;;1.58;;
74900;SDS011;63461;51.416;6.758;2023-08-06T14:03:01;6.07;;;1.88;;
74900;SDS011;63461;51.416;6.758;2023-08-06T14:05:27;3.47;;;1.77;;
74900;SDS011;63461;51.416;6.758;2023-08-06T14:07:53;3.72;;;1.70;;
74900;SDS011;63461;51.416;6.758;2023-08-06T14:10:19;2.72;;;1.60;;
74900;SDS011;63461;51.416;6.758;2023-08-06T14:12:45;2.67;;;1.52;;
74900;SDS011;63461;51.416;6.758;2023-08-06T14:15:11;3.60;;;1.30;;
74900;SDS011;63461;51.416;6.758;2023-08-06T14:17:37;3.13;;;1.40;;
74900;SDS011;63461;51.416;6.758;2023-08-06T14:20:03;2.53;;;1.52;;
74900;SDS011;63461;51.416;6.758;2023-08-06T14:22:32;3.15;;;1.80;;
74900;SDS011;63461;51.416;6.758;2023-08-06T14:24:58;3.50;;;1.80;;
74900;SDS011;63461;51.416;6.758;2023-08-06T14:27:24;1.90;;;1.40;;
74900;SDS011;63461;51.416;6.758;2023-08-06T14:29:50;2.55;;;1.50;;
74900;SDS011;63461;51.416;6.758;2023-08-06T14:32:16;3.42;;;1.50;;
74900;SDS011;63461;51.416;6.758;2023-08-06T14:34:43;3.40;;;1.35;;
74900;SDS011;63461;51.416;6.758;2023-08-06T14:37:09;2.20;;;1.48;;
74900;SDS011;63461;51.416;6.758;2023-08-06T14:39:35;2.47;;;1.20;;
74900;SDS011;63461;51.416;6.758;2023-08-06T14:42:01;4.88;;;1.75;;
74900;SDS011;63461;51.416;6.758;2023-08-06T14:44:28;2.65;;;1.50;;
74900;SDS011;63461;51.416;6.758;2023-08-06T14:46:54;2.63;;;1.60;;
74900;SDS011;63461;51.416;6.758;2023-08-06T14:49:20;3.08;;;1.48;;
74900;SDS011;63461;51.416;6.758;2023-08-06T14:51:48;2.75;;;1.20;;